Kindersley, Canada
Current Conditions -  °F | °C
As of 3:00 AM on Friday 19 Dec 2014 (Local Time) from CYKY Reporting Station
Moderate Fog Moderate Fog  
Wind Chill: 10°   Ceiling: 200
Heat Index: 10°   Visibility: 0.12mi
Dew Point:   Wind: 2mph
Humidity: 85%   Direction: NA
Pressure: 29.88"   Gusts: NA
Location:  51.47°N, 109.16°W
Report Text: CYKY 190900Z VRB02KT 1/8SM FZFG VV002 M12/M14 A2988 RMK FG8 SLP167
Loading
Personal Weather Stations






























Interactive Weather Map New forecast layout! Learn more

10-Day Weather Forecast

Advertisements
Track Severe Weather on mobile